Time;durP1;ratioP1;P1;durP2;ratioP2;P2;SDS_P1;SDS_P2;PMS_P1;PMS_P2;Temp;Humidity;BMP_temperature;BMP_pressure;BME280_temperature;BME280_humidity;BME280_pressure;Samples;Min_cycle;Max_cycle;Signal;HPM_P1;HPM_P2
2023/07/30 00:00:36;;;;;;;2.73;1.53;;;18.00;99.90;;;;;;4978940;28;20638;-74
2023/07/30 00:03:03;;;;;;;1.27;1.10;;;18.00;99.90;;;;;;4980882;28;20625;-74
2023/07/30 00:05:30;;;;;;;1.63;1.13;;;18.00;99.90;;;;;;4979518;28;20650;-74
2023/07/30 00:07:56;;;;;;;1.37;1.03;;;18.00;99.90;;;;;;4978979;28;20646;-74
2023/07/30 00:10:23;;;;;;;1.50;1.40;;;18.10;99.90;;;;;;4981148;28;20630;-74
2023/07/30 00:12:50;;;;;;;1.10;0.97;;;18.00;99.90;;;;;;4982672;28;20636;-74
2023/07/30 00:15:17;;;;;;;1.10;1.00;;;18.00;99.90;;;;;;4974649;28;21178;-74
2023/07/30 00:17:45;;;;;;;1.30;1.20;;;18.00;99.90;;;;;;4983035;28;20661;-74
2023/07/30 00:20:12;;;;;;;1.47;1.10;;;18.10;99.90;;;;;;4982553;28;21205;-74
2023/07/30 00:22:39;;;;;;;1.40;1.30;;;18.20;99.90;;;;;;4979932;28;20636;-74
2023/07/30 00:25:06;;;;;;;1.70;1.60;;;18.20;99.90;;;;;;4980205;28;20626;-74
2023/07/30 00:27:33;;;;;;;1.53;1.43;;;18.10;99.90;;;;;;4981836;28;20632;-74
2023/07/30 00:30:00;;;;;;;1.53;1.37;;;18.00;99.90;;;;;;4982502;28;20635;-74
2023/07/30 00:32:27;;;;;;;1.30;1.20;;;18.00;99.90;;;;;;4982350;28;20657;-74
2023/07/30 00:34:55;;;;;;;2.23;1.70;;;17.80;99.90;;;;;;4979903;28;20622;-74
2023/07/30 00:37:22;;;;;;;1.87;1.73;;;17.70;99.90;;;;;;4980169;28;21250;-74
2023/07/30 00:39:48;;;;;;;1.63;1.53;;;17.70;99.90;;;;;;4981537;28;20610;-74
2023/07/30 00:42:15;;;;;;;1.47;1.37;;;17.60;99.90;;;;;;4982496;28;21008;-74
2023/07/30 00:44:42;;;;;;;1.53;1.43;;;17.70;99.90;;;;;;4982108;28;20982;-73
2023/07/30 00:47:09;;;;;;;1.50;1.00;;;17.70;99.90;;;;;;4979823;28;21005;-74
2023/07/30 00:49:36;;;;;;;1.53;1.43;;;17.80;99.90;;;;;;4984464;28;20663;-74
2023/07/30 00:52:05;;;;;;;3.10;2.43;;;17.80;99.90;;;;;;4980009;28;20659;-74
2023/07/30 00:54:32;;;;;;;1.43;1.33;;;17.70;99.90;;;;;;4979342;28;21376;-73
2023/07/30 00:56:58;;;;;;;2.93;2.23;;;17.70;99.90;;;;;;4980647;28;20665;-74
2023/07/30 00:59:27;;;;;;;1.80;1.70;;;17.70;99.90;;;;;;4981693;28;21261;-74
2023/07/30 01:01:54;;;;;;;2.40;2.00;;;17.70;99.90;;;;;;4982128;28;20671;-73
2023/07/30 01:04:21;;;;;;;2.23;1.87;;;17.70;99.90;;;;;;4978872;28;20640;-74
2023/07/30 01:06:47;;;;;;;2.60;2.40;;;17.70;99.90;;;;;;4979167;28;20676;-73
2023/07/30 01:09:16;;;;;;;2.50;1.70;;;17.70;99.90;;;;;;4979698;28;20658;-74
2023/07/30 01:11:45;;;;;;;2.77;2.30;;;17.70;99.90;;;;;;4982305;28;20641;-74
2023/07/30 01:14:14;;;;;;;2.53;2.23;;;17.80;99.90;;;;;;4982160;28;20625;-74
2023/07/30 01:16:42;;;;;;;2.80;2.60;;;17.90;99.90;;;;;;4982135;28;20645;-74
2023/07/30 01:19:10;;;;;;;2.33;2.10;;;17.90;99.90;;;;;;4981612;28;20726;-74
2023/07/30 01:21:39;;;;;;;5.00;2.30;;;17.90;99.90;;;;;;4978828;28;20638;-74
2023/07/30 01:24:07;;;;;;;2.30;2.10;;;17.80;99.90;;;;;;4978991;28;20665;-74
2023/07/30 01:26:39;;;;;;;2.53;2.13;;;17.80;99.90;;;;;;4981057;28;20650;-74
2023/07/30 01:29:12;;;;;;;4.50;2.50;;;17.90;99.90;;;;;;4981449;28;20740;-74
2023/07/30 01:31:42;;;;;;;2.57;2.37;;;17.80;99.90;;;;;;4981974;28;20772;-74
2023/07/30 01:34:11;;;;;;;2.50;2.30;;;17.90;99.90;;;;;;4981885;28;20630;-74
2023/07/30 01:36:41;;;;;;;3.30;3.00;;;17.80;99.90;;;;;;4981798;28;20731;-74
2023/07/30 01:39:10;;;;;;;4.20;2.77;;;17.80;99.90;;;;;;4981258;28;20676;-74
2023/07/30 01:41:38;;;;;;;2.60;2.40;;;17.80;99.90;;;;;;4981934;28;20651;-74
2023/07/30 01:44:06;;;;;;;3.10;2.80;;;17.80;99.90;;;;;;4981839;28;21111;-74
2023/07/30 01:46:34;;;;;;;2.73;2.53;;;17.80;99.90;;;;;;4981603;28;20700;-74
2023/07/30 01:49:03;;;;;;;3.07;2.80;;;17.70;99.90;;;;;;4979852;28;20664;-73
2023/07/30 01:51:31;;;;;;;2.40;2.03;;;17.80;99.90;;;;;;4978482;28;20653;-74
2023/07/30 01:54:00;;;;;;;2.60;2.40;;;17.70;99.90;;;;;;4980243;28;20634;-74
2023/07/30 01:56:28;;;;;;;2.93;2.50;;;17.70;99.90;;;;;;4981120;28;20657;-74
2023/07/30 01:58:56;;;;;;;3.43;2.60;;;17.70;99.90;;;;;;4980367;28;20636;-73
2023/07/30 02:01:23;;;;;;;3.40;2.20;;;17.60;99.90;;;;;;4978031;28;20713;-74
2023/07/30 02:03:51;;;;;;;2.83;2.23;;;17.70;99.90;;;;;;4978451;28;20634;-74
2023/07/30 02:06:18;;;;;;;3.13;2.60;;;17.70;99.90;;;;;;4980979;28;21013;-74
2023/07/30 02:08:45;;;;;;;3.13;2.83;;;17.70;99.90;;;;;;4980432;28;20653;-73
2023/07/30 02:11:13;;;;;;;3.83;3.53;;;17.60;99.90;;;;;;4979941;28;20647;-74
2023/07/30 02:13:40;;;;;;;4.23;2.43;;;17.60;99.90;;;;;;4978015;28;20798;-74
2023/07/30 02:16:07;;;;;;;2.47;2.20;;;17.70;99.90;;;;;;4977970;28;21284;-74
2023/07/30 02:18:35;;;;;;;2.50;2.30;;;17.80;99.90;;;;;;4977954;28;21254;-74
2023/07/30 02:21:02;;;;;;;2.27;2.00;;;17.80;99.90;;;;;;4977162;28;20681;-73
2023/07/30 02:23:30;;;;;;;3.67;2.40;;;17.80;99.90;;;;;;4979374;28;20634;-73
2023/07/30 02:25:58;;;;;;;2.60;2.47;;;17.80;99.90;;;;;;4980725;28;20641;-74
2023/07/30 02:28:27;;;;;;;3.90;2.77;;;17.60;99.90;;;;;;4975496;28;20753;-74
2023/07/30 02:30:54;;;;;;;3.20;2.93;;;17.50;99.90;;;;;;4977081;28;20753;-73
2023/07/30 02:33:22;;;;;;;2.20;1.80;;;17.50;99.90;;;;;;4977737;28;20645;-74
2023/07/30 02:35:49;;;;;;;4.20;3.50;;;17.50;99.90;;;;;;4977710;28;21029;-74
2023/07/30 02:38:16;;;;;;;2.27;2.07;;;17.60;99.90;;;;;;4984247;28;21200;-74
2023/07/30 02:40:43;;;;;;;5.00;2.67;;;17.60;99.90;;;;;;4978091;28;20735;-74
2023/07/30 02:43:11;;;;;;;2.60;2.40;;;17.70;99.90;;;;;;4977481;28;20641;-73
2023/07/30 02:45:40;;;;;;;3.07;2.60;;;17.60;99.90;;;;;;4978302;28;20654;-73
2023/07/30 02:48:07;;;;;;;2.40;2.10;;;17.60;99.90;;;;;;4984885;28;20634;-74
2023/07/30 02:50:35;;;;;;;2.83;2.23;;;17.60;99.90;;;;;;4977948;28;20642;-74
2023/07/30 02:53:03;;;;;;;2.63;2.43;;;17.60;99.90;;;;;;4977720;28;20989;-74
2023/07/30 02:55:31;;;;;;;1.80;1.70;;;17.60;99.90;;;;;;4976971;28;21305;-74
2023/07/30 02:57:58;;;;;;;2.30;1.43;;;17.60;99.90;;;;;;4979056;28;20646;-74
2023/07/30 03:00:26;;;;;;;2.33;2.13;;;17.60;99.90;;;;;;4979586;28;20644;-74
2023/07/30 03:02:57;;;;;;;2.17;2.00;;;17.50;99.90;;;;;;4980771;28;20657;-74
2023/07/30 03:05:25;;;;;;;2.33;2.10;;;17.50;99.90;;;;;;4977248;28;21285;-73
2023/07/30 03:07:51;;;;;;;2.10;2.00;;;17.40;99.90;;;;;;4977290;28;20982;-74
2023/07/30 03:10:18;;;;;;;1.70;1.60;;;17.40;99.90;;;;;;4978481;28;21008;-74
2023/07/30 03:12:46;;;;;;;2.23;2.03;;;17.40;99.90;;;;;;4980734;28;20733;-74
2023/07/30 03:15:13;;;;;;;1.80;1.70;;;17.40;99.90;;;;;;4972255;28;21199;-74
2023/07/30 03:17:40;;;;;;;1.60;1.50;;;17.20;99.90;;;;;;4980212;28;20680;-74
2023/07/30 03:20:09;;;;;;;1.30;1.20;;;17.20;99.90;;;;;;4979698;28;21221;-74
2023/07/30 03:22:36;;;;;;;2.13;1.93;;;17.20;99.90;;;;;;4977441;28;20704;-74
2023/07/30 03:25:03;;;;;;;1.80;1.70;;;17.30;99.90;;;;;;4977071;28;20622;-74
2023/07/30 03:27:31;;;;;;;2.20;2.03;;;17.20;99.90;;;;;;4985500;28;20762;-74
2023/07/30 03:29:57;;;;;;;2.30;1.80;;;17.20;99.90;;;;;;4979979;28;21251;-74
2023/07/30 03:32:24;;;;;;;3.93;2.20;;;17.20;99.90;;;;;;4979755;28;20773;-74
2023/07/30 03:34:51;;;;;;;2.47;2.27;;;17.20;99.90;;;;;;4982028;28;20647;-74
2023/07/30 03:37:19;;;;;;;1.80;1.50;;;17.30;99.90;;;;;;4983576;28;20680;-74
2023/07/30 03:39:46;;;;;;;2.87;2.57;;;17.20;99.90;;;;;;4980958;28;20703;-74
2023/07/30 03:42:13;;;;;;;2.10;1.90;;;17.20;99.90;;;;;;4980892;28;21152;-74
2023/07/30 03:44:40;;;;;;;1.63;1.50;;;17.20;99.90;;;;;;4989193;28;20618;-74
2023/07/30 03:47:06;;;;;;;2.53;2.00;;;17.30;99.90;;;;;;4980599;28;20749;-73
2023/07/30 03:49:33;;;;;;;2.20;2.00;;;17.30;99.90;;;;;;4985820;28;21045;-74
2023/07/30 03:52:00;;;;;;;2.83;1.77;;;17.40;99.90;;;;;;4983820;28;20756;-74
2023/07/30 03:54:28;;;;;;;2.80;2.03;;;17.40;99.90;;;;;;4983888;28;20625;-74
2023/07/30 03:56:55;;;;;;;2.27;2.07;;;17.40;99.90;;;;;;4983657;28;20661;-73
2023/07/30 03:59:22;;;;;;;3.50;2.33;;;17.50;99.90;;;;;;4983154;28;20639;-74
2023/07/30 04:01:49;;;;;;;3.00;2.20;;;17.50;99.90;;;;;;4983670;28;20653;-74
2023/07/30 04:04:16;;;;;;;2.07;1.97;;;17.50;99.90;;;;;;4982891;28;20656;-74
2023/07/30 04:06:42;;;;;;;2.60;2.30;;;17.40;99.90;;;;;;4983784;28;20649;-74
2023/07/30 04:09:09;;;;;;;2.13;1.93;;;17.40;99.90;;;;;;4982825;28;20670;-74
2023/07/30 04:11:37;;;;;;;2.93;1.90;;;17.40;99.90;;;;;;4983223;28;21260;-74
2023/07/30 04:14:04;;;;;;;2.00;1.77;;;17.40;99.90;;;;;;4983332;28;21193;-74
2023/07/30 04:16:31;;;;;;;1.93;1.83;;;17.40;99.90;;;;;;4980812;28;20644;-74
2023/07/30 04:18:58;;;;;;;1.50;1.27;;;17.40;99.90;;;;;;4986538;28;20752;-74
2023/07/30 04:21:25;;;;;;;2.50;2.30;;;17.30;99.90;;;;;;4983025;28;20656;-74
2023/07/30 04:23:52;;;;;;;2.20;1.93;;;17.40;99.90;;;;;;4983293;28;20727;-74
2023/07/30 04:26:19;;;;;;;2.63;2.43;;;17.40;99.90;;;;;;4983053;28;21119;-74
2023/07/30 04:28:47;;;;;;;3.80;2.17;;;17.50;99.90;;;;;;4983176;28;20633;-74
2023/07/30 04:31:13;;;;;;;2.13;2.03;;;17.40;99.90;;;;;;4980806;28;21025;-74
2023/07/30 04:33:40;;;;;;;3.80;1.87;;;17.40;99.90;;;;;;4982778;28;20693;-74
2023/07/30 04:36:07;;;;;;;2.97;2.17;;;17.30;99.90;;;;;;4982864;28;20660;-74
2023/07/30 04:38:34;;;;;;;2.27;2.17;;;17.30;99.90;;;;;;4982953;28;21213;-74
2023/07/30 04:41:01;;;;;;;2.43;2.13;;;17.30;99.90;;;;;;4981902;28;20672;-74
2023/07/30 04:43:28;;;;;;;1.93;1.83;;;17.40;99.90;;;;;;4983808;28;20626;-73
2023/07/30 04:45:56;;;;;;;1.90;1.80;;;17.50;99.90;;;;;;4986896;28;20649;-74
2023/07/30 04:48:22;;;;;;;1.67;1.57;;;17.40;99.90;;;;;;4985916;28;20643;-74
2023/07/30 04:50:49;;;;;;;2.10;2.00;;;17.50;99.90;;;;;;4980244;28;20717;-74
2023/07/30 04:53:16;;;;;;;2.27;1.77;;;17.50;99.90;;;;;;4986468;28;20622;-74
2023/07/30 04:55:43;;;;;;;2.20;2.00;;;17.50;99.90;;;;;;4979165;28;20669;-74
2023/07/30 04:58:10;;;;;;;2.20;2.00;;;17.60;99.90;;;;;;4987575;28;20640;-74
2023/07/30 05:00:37;;;;;;;2.00;1.90;;;17.50;99.90;;;;;;4978417;28;20656;-74
2023/07/30 05:03:05;;;;;;;2.27;2.07;;;17.70;99.90;;;;;;4981237;28;20668;-74
2023/07/30 05:05:32;;;;;;;2.10;1.97;;;17.60;99.90;;;;;;4982536;28;20645;-74
2023/07/30 05:07:58;;;;;;;2.20;2.00;;;17.60;99.90;;;;;;4982317;28;20647;-74
2023/07/30 05:10:25;;;;;;;1.80;1.70;;;17.60;99.90;;;;;;4982024;28;20677;-74
2023/07/30 05:12:52;;;;;;;3.07;2.30;;;17.60;99.90;;;;;;4982242;28;20952;-74
2023/07/30 05:15:19;;;;;;;1.83;1.73;;;17.50;99.90;;;;;;4974527;28;21058;-74
2023/07/30 05:17:46;;;;;;;3.97;2.10;;;17.60;99.90;;;;;;4982503;28;20733;-74
2023/07/30 05:20:14;;;;;;;2.60;2.40;;;17.60;99.90;;;;;;4981110;28;20665;-73
2023/07/30 05:22:41;;;;;;;2.83;2.53;;;17.60;99.90;;;;;;4979001;28;21204;-73
2023/07/30 05:25:08;;;;;;;2.13;1.93;;;17.60;99.90;;;;;;4986120;28;21035;-74
2023/07/30 05:27:36;;;;;;;2.47;2.27;;;17.60;99.90;;;;;;4979456;28;20964;-74
2023/07/30 05:30:03;;;;;;;2.97;2.57;;;17.60;99.90;;;;;;4982816;28;20653;-74
2023/07/30 05:32:30;;;;;;;2.80;2.60;;;17.60;99.90;;;;;;4980959;28;20648;-74
2023/07/30 05:34:57;;;;;;;2.20;2.00;;;17.70;99.90;;;;;;4978852;28;20627;-74
2023/07/30 05:37:25;;;;;;;3.03;2.10;;;17.70;99.90;;;;;;4986413;28;21012;-74
2023/07/30 05:39:51;;;;;;;1.80;1.70;;;17.80;99.90;;;;;;4981337;28;20625;-74
2023/07/30 05:42:18;;;;;;;3.43;2.37;;;17.70;99.90;;;;;;4981398;28;21166;-74
2023/07/30 05:44:45;;;;;;;3.63;2.23;;;17.70;99.90;;;;;;4980411;28;20625;-74
2023/07/30 05:47:12;;;;;;;2.40;2.10;;;17.80;99.90;;;;;;4978910;28;20652;-74
2023/07/30 05:49:38;;;;;;;2.17;2.00;;;17.90;99.90;;;;;;4984329;28;20653;-74
2023/07/30 05:52:06;;;;;;;2.30;2.10;;;17.80;99.90;;;;;;4978454;28;20645;-74
2023/07/30 05:54:34;;;;;;;1.90;1.80;;;17.80;99.90;;;;;;4978274;28;20637;-73
2023/07/30 05:57:01;;;;;;;2.17;1.60;;;17.90;99.90;;;;;;4985384;28;20668;-73
2023/07/30 05:59:28;;;;;;;1.90;1.70;;;18.00;99.90;;;;;;4979048;28;20626;-74
2023/07/30 06:01:57;;;;;;;2.40;2.03;;;18.00;99.90;;;;;;4981158;28;20657;-74
2023/07/30 06:04:24;;;;;;;1.77;1.67;;;17.90;99.90;;;;;;4978846;28;20634;-74
2023/07/30 06:06:54;;;;;;;1.93;1.73;;;18.00;99.90;;;;;;4978621;28;20642;-74
2023/07/30 06:09:23;;;;;;;1.30;1.20;;;18.10;99.90;;;;;;4980154;28;21230;-74
2023/07/30 06:11:54;;;;;;;1.93;1.70;;;18.10;99.90;;;;;;4980852;28;20660;-74
2023/07/30 06:14:38;;;;;;;1.20;1.20;;;18.00;99.90;;;;;;4980850;28;20669;-74
2023/07/30 06:17:05;;;;;;;3.73;2.20;;;18.00;99.90;;;;;;4981154;28;20653;-74
2023/07/30 06:19:32;;;;;;;4.13;1.73;;;18.10;99.90;;;;;;4977455;28;20617;-74
2023/07/30 06:22:08;;;;;;;1.90;1.50;;;18.10;99.90;;;;;;4983887;28;20645;-75
2023/07/30 06:24:35;;;;;;;1.73;1.23;;;18.10;99.90;;;;;;4978361;28;20637;-74
2023/07/30 06:27:03;;;;;;;2.00;1.50;;;18.20;99.90;;;;;;4977859;28;20650;-75
2023/07/30 06:29:29;;;;;;;1.43;1.23;;;18.20;99.90;;;;;;4985321;28;20638;-73
2023/07/30 06:31:56;;;;;;;1.33;1.23;;;18.20;99.90;;;;;;4974678;28;20749;-74
2023/07/30 06:34:23;;;;;;;1.67;1.57;;;18.40;99.90;;;;;;4977362;28;20639;-74
2023/07/30 06:36:50;;;;;;;1.27;1.17;;;18.20;99.90;;;;;;4975888;28;20648;-74
2023/07/30 06:39:17;;;;;;;2.93;1.80;;;18.20;99.90;;;;;;4979945;28;20633;-74
2023/07/30 06:41:43;;;;;;;1.87;1.60;;;18.30;99.90;;;;;;4978075;28;20676;-73
2023/07/30 06:44:11;;;;;;;1.70;1.60;;;18.40;99.90;;;;;;4975870;28;20630;-73
2023/07/30 06:46:38;;;;;;;1.67;1.47;;;18.50;99.90;;;;;;4977740;28;20650;-73
2023/07/30 06:49:05;;;;;;;1.40;1.30;;;18.40;99.90;;;;;;4977828;28;20641;-73
2023/07/30 06:51:38;;;;;;;1.53;1.43;;;18.60;99.90;;;;;;4977160;28;20680;-73
2023/07/30 06:54:06;;;;;;;2.53;1.00;;;18.80;99.90;;;;;;4984297;28;20610;-74
2023/07/30 06:56:33;;;;;;;1.60;1.43;;;18.90;99.90;;;;;;4978505;28;21046;-75
2023/07/30 06:59:00;;;;;;;1.57;1.47;;;18.90;99.90;;;;;;4980428;28;20626;-74
2023/07/30 07:01:28;;;;;;;1.50;1.03;;;19.10;99.90;;;;;;4976773;28;21137;-73
2023/07/30 07:04:00;;;;;;;0.80;0.80;;;19.10;99.90;;;;;;4977363;28;21552;-74
2023/07/30 07:06:27;;;;;;;1.10;1.10;;;19.00;99.90;;;;;;4978298;28;21237;-74
2023/07/30 07:08:54;;;;;;;1.13;1.03;;;18.90;99.90;;;;;;4975437;28;20652;-72
2023/07/30 07:11:24;;;;;;;0.63;0.63;;;18.90;99.90;;;;;;4982428;28;20677;-73
2023/07/30 07:13:51;;;;;;;1.00;0.93;;;18.80;99.90;;;;;;4975221;28;20632;-72
2023/07/30 07:16:18;;;;;;;1.70;1.50;;;18.80;99.90;;;;;;4979457;28;21109;-74
2023/07/30 07:18:48;;;;;;;1.90;0.80;;;18.70;99.90;;;;;;4976262;28;20656;-75
2023/07/30 07:21:15;;;;;;;0.80;0.80;;;18.70;99.90;;;;;;4977484;28;20986;-77
2023/07/30 07:23:42;;;;;;;0.77;0.77;;;18.70;99.90;;;;;;4980015;28;20622;-76
2023/07/30 07:26:09;;;;;;;1.00;0.90;;;18.70;99.90;;;;;;4977186;28;20658;-76
2023/07/30 07:28:36;;;;;;;2.57;0.97;;;18.80;99.90;;;;;;4979485;28;20630;-79
2023/07/30 07:31:03;;;;;;;0.97;0.97;;;18.80;99.90;;;;;;4979343;28;20673;-77
2023/07/30 07:33:29;;;;;;;0.70;0.70;;;18.80;99.90;;;;;;4976363;28;20725;-77
2023/07/30 07:36:05;;;;;;;1.03;0.90;;;18.80;99.90;;;;;;4980160;28;20667;-76
2023/07/30 07:38:33;;;;;;;1.03;1.03;;;18.80;99.90;;;;;;4981106;28;20691;-76
2023/07/30 07:41:00;;;;;;;0.93;0.93;;;18.80;99.90;;;;;;4975868;28;20646;-76
2023/07/30 07:43:27;;;;;;;1.40;1.30;;;18.80;99.90;;;;;;4976619;28;20630;-77
2023/07/30 07:45:54;;;;;;;1.03;1.03;;;18.90;99.90;;;;;;4979232;28;20670;-76
2023/07/30 07:48:21;;;;;;;0.93;0.93;;;18.60;99.90;;;;;;4978892;28;20632;-77
2023/07/30 07:50:47;;;;;;;1.07;0.80;;;18.60;99.90;;;;;;4977779;28;21106;-75
2023/07/30 07:53:16;;;;;;;0.70;0.70;;;18.70;99.90;;;;;;4983564;28;20645;-75
2023/07/30 07:55:42;;;;;;;1.40;1.30;;;18.70;99.90;;;;;;4984520;28;21308;-76
2023/07/30 07:58:09;;;;;;;0.83;0.80;;;18.70;99.90;;;;;;4975794;28;20648;-74
2023/07/30 08:00:36;;;;;;;1.30;1.03;;;18.80;99.90;;;;;;4976219;28;20646;-79
2023/07/30 08:03:03;;;;;;;1.10;1.00;;;18.80;99.90;;;;;;4977196;28;20630;-74
2023/07/30 08:05:29;;;;;;;2.23;1.30;;;18.80;99.90;;;;;;4977987;28;20646;-77
2023/07/30 08:07:56;;;;;;;1.20;0.97;;;19.00;99.90;;;;;;4977539;28;20670;-74
2023/07/30 08:10:24;;;;;;;0.93;0.90;;;19.10;99.90;;;;;;4976512;28;20758;-74
2023/07/30 08:12:54;;;;;;;2.40;2.20;;;19.20;99.90;;;;;;4978443;28;20625;-74
2023/07/30 08:15:22;;;;;;;1.77;1.37;;;19.20;99.90;;;;;;4978152;28;21231;-74
2023/07/30 08:17:49;;;;;;;1.50;1.20;;;19.10;99.90;;;;;;4977316;28;20630;-74
2023/07/30 08:20:15;;;;;;;1.83;1.10;;;19.10;99.90;;;;;;4976004;28;20633;-73
2023/07/30 08:22:44;;;;;;;6.80;1.33;;;19.20;99.90;;;;;;4981188;28;20720;-73
2023/07/30 08:25:14;;;;;;;1.20;1.10;;;19.20;99.90;;;;;;4980644;28;20648;-74
2023/07/30 08:27:42;;;;;;;2.33;1.00;;;19.30;99.90;;;;;;4980551;28;20632;-73
2023/07/30 08:30:10;;;;;;;0.90;0.90;;;19.60;99.90;;;;;;4982005;28;20717;-73
2023/07/30 08:32:37;;;;;;;0.80;0.80;;;19.60;99.90;;;;;;4980059;28;20753;-73
2023/07/30 08:35:04;;;;;;;1.13;1.00;;;19.80;99.90;;;;;;4980485;28;20665;-73
2023/07/30 08:37:31;;;;;;;1.03;1.03;;;20.00;99.90;;;;;;4976871;28;20634;-74
2023/07/30 08:40:24;;;;;;;0.97;0.93;;;20.20;99.90;;;;;;4977140;28;20742;-76
2023/07/30 08:42:53;;;;;;;0.80;0.80;;;20.10;99.90;;;;;;4977682;28;21238;-73
2023/07/30 08:45:23;;;;;;;1.53;1.43;;;20.00;99.90;;;;;;4982401;28;20637;-73
2023/07/30 08:47:49;;;;;;;1.20;1.20;;;20.10;99.90;;;;;;4982201;28;21156;-73
2023/07/30 08:50:16;;;;;;;1.30;1.20;;;20.00;99.90;;;;;;4977266;28;20758;-73
2023/07/30 08:52:44;;;;;;;1.20;1.10;;;20.10;99.90;;;;;;4979093;28;20596;-72
2023/07/30 08:55:12;;;;;;;1.00;1.00;;;20.00;99.90;;;;;;4981497;28;20635;-72
2023/07/30 08:57:39;;;;;;;1.10;1.00;;;20.00;99.90;;;;;;4979774;28;20638;-73
2023/07/30 09:00:10;;;;;;;1.37;1.27;;;20.10;99.90;;;;;;4978086;28;21009;-72
2023/07/30 09:02:42;;;;;;;1.50;1.40;;;20.20;99.90;;;;;;4979917;28;20743;-72
2023/07/30 09:05:09;;;;;;;1.50;1.30;;;20.30;99.90;;;;;;4984072;28;20982;-78
2023/07/30 09:07:36;;;;;;;1.40;1.30;;;20.30;99.90;;;;;;4980026;28;20634;-79
2023/07/30 09:10:03;;;;;;;1.43;1.33;;;20.50;99.90;;;;;;4982115;28;20697;-73
2023/07/30 09:12:31;;;;;;;1.33;1.23;;;20.70;99.90;;;;;;4979911;28;20659;-73
2023/07/30 09:14:58;;;;;;;1.20;1.10;;;20.90;99.90;;;;;;4972077;28;20631;-73
2023/07/30 09:17:28;;;;;;;1.93;1.30;;;21.10;99.90;;;;;;4976057;28;20659;-73
2023/07/30 09:19:54;;;;;;;1.67;1.57;;;20.90;99.90;;;;;;4977463;28;20643;-73
2023/07/30 09:22:26;;;;;;;2.53;1.50;;;20.50;99.90;;;;;;4974217;28;20657;-73
2023/07/30 09:24:53;;;;;;;1.60;1.50;;;20.40;99.90;;;;;;4979859;28;20622;-72
2023/07/30 09:27:24;;;;;;;1.40;1.30;;;20.40;99.90;;;;;;4976275;28;21095;-73
2023/07/30 09:29:53;;;;;;;1.17;1.10;;;20.40;99.90;;;;;;4975233;28;20694;-72
2023/07/30 09:32:19;;;;;;;2.60;2.30;;;20.20;99.90;;;;;;4976595;28;20676;-71
2023/07/30 09:34:48;;;;;;;1.40;1.30;;;20.00;99.90;;;;;;4980416;28;20631;-72
2023/07/30 09:37:16;;;;;;;1.70;1.50;;;19.80;99.90;;;;;;4977185;28;20660;-72
2023/07/30 09:39:42;;;;;;;2.97;2.40;;;19.60;99.90;;;;;;4980061;28;20848;-72
2023/07/30 09:42:09;;;;;;;1.77;1.67;;;19.60;99.90;;;;;;4977933;28;20662;-72
2023/07/30 09:44:39;;;;;;;1.40;1.27;;;19.80;99.90;;;;;;4982959;28;20635;-72
2023/07/30 09:47:09;;;;;;;1.20;1.10;;;19.80;99.90;;;;;;4982175;28;21250;-72
2023/07/30 09:49:36;;;;;;;1.30;1.20;;;19.70;99.90;;;;;;4983178;28;20634;-72
2023/07/30 09:52:06;;;;;;;1.10;1.00;;;19.70;99.90;;;;;;4980114;28;21157;-72
2023/07/30 09:54:33;;;;;;;2.00;1.57;;;19.70;99.90;;;;;;4981591;28;20692;-72
2023/07/30 09:57:00;;;;;;;1.07;1.03;;;19.90;99.90;;;;;;4977012;28;20667;-72
2023/07/30 09:59:27;;;;;;;1.30;1.20;;;20.00;99.90;;;;;;4977957;28;20636;-72
2023/07/30 10:01:55;;;;;;;1.60;1.50;;;20.20;99.90;;;;;;4975439;28;20657;-72
2023/07/30 10:04:23;;;;;;;1.57;1.47;;;20.30;99.90;;;;;;4973353;28;20637;-72
2023/07/30 10:06:55;;;;;;;1.40;1.30;;;20.40;99.90;;;;;;4976294;28;20652;-72
2023/07/30 10:09:26;;;;;;;1.33;1.23;;;20.60;99.90;;;;;;4972476;28;20640;-72
2023/07/30 10:11:55;;;;;;;1.63;1.47;;;20.70;99.90;;;;;;4981776;28;20674;-72
2023/07/30 10:14:24;;;;;;;1.47;1.37;;;21.00;99.90;;;;;;4976093;28;20637;-72
2023/07/30 10:16:53;;;;;;;1.93;1.60;;;21.10;99.90;;;;;;4970909;28;20747;-72
2023/07/30 10:19:23;;;;;;;3.27;1.40;;;21.00;99.90;;;;;;4977360;28;20986;-72
2023/07/30 10:21:50;;;;;;;1.70;1.60;;;21.30;99.90;;;;;;4974490;28;20655;-72
2023/07/30 10:24:17;;;;;;;1.37;1.30;;;21.60;99.90;;;;;;4978401;28;20635;-72
2023/07/30 10:26:45;;;;;;;2.47;2.27;;;21.70;99.90;;;;;;4983718;28;20681;-72
2023/07/30 10:29:17;;;;;;;4.20;3.80;;;21.70;98.50;;;;;;4982230;28;21184;-72
2023/07/30 10:31:48;;;;;;;1.23;1.23;;;21.80;99.90;;;;;;4980868;28;20676;-72
2023/07/30 10:34:15;;;;;;;1.87;1.63;;;21.70;99.90;;;;;;4981257;28;20644;-72
2023/07/30 10:36:44;;;;;;;1.53;1.40;;;21.90;99.90;;;;;;4976670;28;20648;-73
2023/07/30 10:39:12;;;;;;;1.60;1.50;;;22.20;99.90;;;;;;4982102;28;20633;-72
2023/07/30 10:41:39;;;;;;;1.90;1.60;;;22.40;99.90;;;;;;4980977;28;20656;-73
2023/07/30 10:44:08;;;;;;;1.90;1.80;;;22.60;99.70;;;;;;4977849;28;20982;-72
2023/07/30 10:46:34;;;;;;;2.10;1.90;;;22.60;98.80;;;;;;4979458;28;21095;-74
2023/07/30 10:49:01;;;;;;;2.40;2.20;;;22.80;97.30;;;;;;4983933;28;20999;-72
2023/07/30 10:51:28;;;;;;;1.57;1.47;;;22.80;95.80;;;;;;4982317;28;20670;-73
2023/07/30 10:53:55;;;;;;;2.43;2.20;;;22.90;93.00;;;;;;4976290;28;20641;-72
2023/07/30 10:56:24;;;;;;;1.67;1.57;;;22.90;94.10;;;;;;4980759;28;20663;-73
2023/07/30 10:58:52;;;;;;;1.30;1.20;;;23.10;95.30;;;;;;4978108;28;21191;-72
2023/07/30 11:01:21;;;;;;;1.63;1.53;;;23.20;94.10;;;;;;4984840;28;20658;-72
2023/07/30 11:03:51;;;;;;;1.47;1.37;;;22.80;94.70;;;;;;4987547;28;20635;-72
2023/07/30 11:06:22;;;;;;;2.13;1.97;;;23.10;96.60;;;;;;4983301;28;20665;-72
2023/07/30 11:08:49;;;;;;;1.43;1.33;;;23.10;94.80;;;;;;4979929;28;20663;-72
2023/07/30 11:11:16;;;;;;;2.63;1.67;;;23.20;94.60;;;;;;4982737;28;20675;-73
2023/07/30 11:13:46;;;;;;;2.63;1.30;;;23.30;94.90;;;;;;4969876;28;20628;-72
2023/07/30 11:16:14;;;;;;;1.53;1.43;;;22.70;94.50;;;;;;4978966;28;20667;-73
2023/07/30 11:18:43;;;;;;;1.63;1.53;;;22.40;93.30;;;;;;4979636;28;21206;-72
2023/07/30 11:21:12;;;;;;;6.10;2.07;;;22.20;95.10;;;;;;4982408;28;20644;-72
2023/07/30 11:23:40;;;;;;;1.60;1.33;;;22.30;95.20;;;;;;4979329;28;20653;-72
2023/07/30 11:26:08;;;;;;;1.47;1.37;;;22.20;94.00;;;;;;4980078;28;20742;-72
2023/07/30 11:28:36;;;;;;;1.67;1.57;;;22.30;94.20;;;;;;4981470;28;21052;-72
2023/07/30 11:31:04;;;;;;;2.17;1.97;;;22.50;95.20;;;;;;4977047;28;20683;-72
2023/07/30 11:33:32;;;;;;;1.50;1.40;;;22.60;94.10;;;;;;4978188;28;20628;-72
2023/07/30 11:36:02;;;;;;;1.53;1.43;;;23.20;93.90;;;;;;4981318;28;20757;-72
2023/07/30 11:38:29;;;;;;;2.00;1.43;;;23.20;92.80;;;;;;4980589;28;21179;-72
2023/07/30 11:40:57;;;;;;;2.37;2.17;;;22.90;93.50;;;;;;4979262;28;20659;-74
2023/07/30 11:43:24;;;;;;;1.40;1.30;;;23.20;93.40;;;;;;4971060;28;20648;-74
2023/07/30 11:46:08;;;;;;;1.50;1.40;;;22.90;92.50;;;;;;4983239;28;20671;-74
2023/07/30 11:48:35;;;;;;;5.63;1.90;;;22.90;94.00;;;;;;4978610;28;20631;-74
2023/07/30 11:51:03;;;;;;;6.10;1.70;;;22.80;93.80;;;;;;4970400;28;20738;-75
2023/07/30 11:53:46;;;;;;;1.67;1.57;;;22.50;93.90;;;;;;4980215;28;20636;-74
2023/07/30 11:56:21;;;;;;;1.63;1.53;;;22.20;94.20;;;;;;4974539;28;20671;-74
2023/07/30 11:58:48;;;;;;;1.70;1.60;;;21.80;94.10;;;;;;4984688;28;20641;-73
2023/07/30 12:01:16;;;;;;;2.23;2.07;;;21.50;95.30;;;;;;4977463;28;21174;-72
2023/07/30 12:03:42;;;;;;;1.40;1.30;;;21.50;94.70;;;;;;4979546;28;20626;-74
2023/07/30 12:06:12;;;;;;;1.70;1.60;;;22.00;95.60;;;;;;4985380;28;20655;-76
2023/07/30 12:08:39;;;;;;;1.47;1.37;;;22.00;94.70;;;;;;4983576;28;20663;-75
2023/07/30 12:11:07;;;;;;;2.03;1.87;;;21.60;95.10;;;;;;4983352;28;20666;-76
2023/07/30 12:13:35;;;;;;;1.70;1.60;;;21.50;94.90;;;;;;4984395;28;20748;-76
2023/07/30 12:16:02;;;;;;;2.73;2.00;;;22.10;95.20;;;;;;4979753;28;20661;-75
2023/07/30 12:18:29;;;;;;;1.67;1.57;;;23.60;93.20;;;;;;4983136;28;20634;-75
2023/07/30 12:21:06;;;;;;;1.97;1.80;;;25.10;90.80;;;;;;4978732;28;21006;-77
2023/07/30 12:23:37;;;;;;;2.90;2.13;;;25.80;85.50;;;;;;4982875;28;20646;-78
2023/07/30 12:26:05;;;;;;;2.10;1.90;;;25.30;88.20;;;;;;4984010;28;20650;-77
2023/07/30 12:28:33;;;;;;;1.47;1.30;;;26.10;85.80;;;;;;4980948;28;21292;-73
2023/07/30 12:30:59;;;;;;;1.53;1.43;;;25.90;81.30;;;;;;4980745;28;20656;-68
2023/07/30 12:33:26;;;;;;;4.70;1.70;;;25.80;84.30;;;;;;4980910;28;21206;-72
2023/07/30 12:35:53;;;;;;;1.53;1.43;;;25.00;84.10;;;;;;4980746;28;21080;-75
2023/07/30 12:38:20;;;;;;;2.23;1.40;;;24.20;86.10;;;;;;4979193;28;20860;-74
2023/07/30 12:40:48;;;;;;;1.80;1.70;;;23.60;87.10;;;;;;4979587;28;21170;-73
2023/07/30 12:43:15;;;;;;;2.83;1.53;;;23.70;90.10;;;;;;4981953;28;20997;-71
2023/07/30 12:45:42;;;;;;;4.20;1.33;;;24.40;86.10;;;;;;4978810;28;20660;-73
2023/07/30 12:48:08;;;;;;;1.63;1.43;;;24.90;85.00;;;;;;4976713;28;20637;-73
2023/07/30 12:50:35;;;;;;;1.40;1.30;;;25.10;88.80;;;;;;4979946;28;20658;-72